Terminal Aerodrome Forecast
Issued by NWS

Home | Current Version | Previous Version | Text Only | Print | Product List | Glossary Off
Versions: 1 2 3 4 5 6 7 8 9 10 11 12 13 14 15 16 17 18

000
FTUS43 KGRB 230300 AAB
TAFATW
TAF AMD
KATW 230353Z 2304/2324 34013G20KT P6SM SCT050
     FM230500 34009KT P6SM FEW045
     FM231500 02010G17KT P6SM SCT045
      TEMPO 2316/2320 BKN045=

USA.gov is the U.S. government's official web portal to all federal, state and local government web resources and services.